Cristalandia, Brazil
Current Conditions -  °F | °C
As of 10:00 PM on Monday 24 Nov 2014 (Local Time) from SBPJ Reporting Station
Scattered Clouds Scattered Clouds  
Wind Chill: 75°   Ceiling: Unl
Heat Index: 75°   Visibility: 6mi
Dew Point: 70°   Wind: 3mph
Humidity: 83%   Direction: 10°N
Pressure: 29.91"   Gusts: NA
Location:  10.6°S, 49.19°W
Report Text: SBPJ 250100Z 01003KT 9999 SCT027 24/21 Q1013
Loading
Personal Weather Stations






























Interactive Weather Map New forecast layout! Learn more

10-Day Weather Forecast

Advertisements
Track Severe Weather on mobile